EGFF/CWL METAR and TAF weather

Enter ICAO airport designator
Station Type Date Time Source
EGFF METAR 2018/01/24 06:50 UTC NOAA

EGFF 240650Z AUTO 23018KT 9999 BKN017 OVC026 12/11 Q1002


Station Type Date Time Source
EGFF Decoded METAR 2018/01/24 06:50 UTC NOAA

Cardiff-Wales Airport, United Kingdom (EGFF) 51-24N 003-21W 0M
Jan 24, 2018 - 01:50 AM EST / 2018.01.24 0650 UTC
Wind: from the SW (230 degrees) at 21 MPH (18 KT):0
Visibility: greater than 7 mile(s):0
Sky conditions: overcast
Temperature: 53 F (12 C)
Dew Point: 51 F (11 C)
Relative Humidity: 93%
Pressure (altimeter): 29.59 in. Hg (1002 hPa)
ob: EGFF 240650Z AUTO 23018KT 9999 BKN017 OVC026 12/11 Q1002
cycle: 7

Station Type Date Time Source
EGFF TAF 2018/01/24 06:15 UTC NOAA

TAF EGFF 240458Z 2406/2506 21020G30KT 9999 SCT025
TEMPO 2406/2412 7000 RA BKN008 PROB40
TEMPO 2406/2409 24025G45KT PROB30
TEMPO 2406/2411 3000 +RA BKN004
BECMG 2415/2418 23015KT PROB30
TEMPO 2418/2506 24018G28KT PROB30
TEMPO 2419/2424 7000 SHRA BKN012


Example: see airport list